createdAt,value
2022-08-27T00:02:11.707Z,39.59
2022-08-27T00:04:38.836Z,39.45
2022-08-27T00:07:06.291Z,39.84
2022-08-27T00:09:33.012Z,39.70
2022-08-27T00:11:59.932Z,39.51
2022-08-27T00:14:28.015Z,39.39
2022-08-27T00:16:55.724Z,39.67
2022-08-27T00:19:22.550Z,39.64
2022-08-27T00:21:49.195Z,39.72
2022-08-27T00:24:15.958Z,39.51
2022-08-27T00:26:43.457Z,39.56
2022-08-27T00:29:10.573Z,40.00
2022-08-27T00:31:37.648Z,39.48
2022-08-27T00:34:05.244Z,39.53
2022-08-27T00:36:34.157Z,39.56
2022-08-27T00:39:00.760Z,40.03
2022-08-27T00:41:27.613Z,39.61
2022-08-27T00:43:57.760Z,39.99
2022-08-27T00:46:30.567Z,39.69
2022-08-27T00:49:02.653Z,39.89
2022-08-27T00:51:30.756Z,39.99
2022-08-27T00:53:58.951Z,39.99
2022-08-27T00:56:29.524Z,39.56
2022-08-27T00:58:56.981Z,39.69
2022-08-27T01:01:29.361Z,39.72
2022-08-27T01:04:00.690Z,39.72
2022-08-27T01:06:33.972Z,39.77
2022-08-27T01:09:12.164Z,40.10
2022-08-27T01:11:39.161Z,40.24
2022-08-27T01:14:06.730Z,40.00
2022-08-27T01:16:38.240Z,39.95
2022-08-27T01:19:09.670Z,40.13
2022-08-27T01:21:45.999Z,40.18
2022-08-27T01:24:24.727Z,40.14
2022-08-27T01:26:51.855Z,40.50
2022-08-27T01:29:18.866Z,40.53
2022-08-27T01:31:45.551Z,40.42
2022-08-27T01:34:12.406Z,40.12
2022-08-27T01:36:39.023Z,40.58
2022-08-27T01:39:05.695Z,40.29
2022-08-27T01:41:32.945Z,40.44
2022-08-27T01:43:59.786Z,40.45
2022-08-27T01:46:28.454Z,40.48
2022-08-27T01:48:55.963Z,40.61
2022-08-27T01:51:22.602Z,40.92
2022-08-27T01:53:49.787Z,40.83
2022-08-27T01:56:16.553Z,40.58
2022-08-27T01:58:44.255Z,40.81
2022-08-27T02:01:14.068Z,40.98
2022-08-27T02:03:41.433Z,41.03
2022-08-27T02:06:10.175Z,40.83
2022-08-27T02:08:37.749Z,40.79
2022-08-27T02:11:05.566Z,40.79
2022-08-27T02:13:32.181Z,41.11
2022-08-27T02:15:58.914Z,40.88
2022-08-27T02:18:25.723Z,41.11
2022-08-27T02:20:52.381Z,41.12
2022-08-27T02:23:19.175Z,40.67
2022-08-27T02:25:48.954Z,40.43
2022-08-27T02:28:16.326Z,40.41
2022-08-27T02:30:43.097Z,40.54
2022-08-27T02:33:09.987Z,40.47
2022-08-27T02:35:39.923Z,40.42
2022-08-27T02:38:07.927Z,40.50
2022-08-27T02:40:36.122Z,40.61
2022-08-27T02:43:03.116Z,40.65
2022-08-27T02:45:29.926Z,41.10
2022-08-27T02:47:56.662Z,41.11
2022-08-27T02:50:27.022Z,41.44
2022-08-27T02:52:54.785Z,41.43
2022-08-27T02:55:22.507Z,41.30
2022-08-27T02:57:49.192Z,41.42
2022-08-27T03:00:19.162Z,41.56
2022-08-27T03:02:45.890Z,41.82
2022-08-27T03:05:13.304Z,41.76
2022-08-27T03:07:40.432Z,41.90
2022-08-27T03:10:08.387Z,41.97
2022-08-27T03:12:36.366Z,41.62
2022-08-27T03:15:05.667Z,41.53
2022-08-27T03:17:51.011Z,41.69
2022-08-27T03:20:18.606Z,41.94
2022-08-27T03:22:45.930Z,41.60
2022-08-27T03:25:12.700Z,41.63
2022-08-27T03:27:39.944Z,41.73
2022-08-27T03:30:13.493Z,41.71
2022-08-27T03:32:40.195Z,41.99
2022-08-27T03:35:07.636Z,42.03
2022-08-27T03:37:35.064Z,42.02
2022-08-27T03:40:02.193Z,42.00
2022-08-27T03:42:28.873Z,41.74
2022-08-27T03:44:55.571Z,41.52
2022-08-27T03:47:23.754Z,41.36
2022-08-27T03:49:50.418Z,41.33
2022-08-27T03:52:17.460Z,41.69
2022-08-27T03:54:44.058Z,41.66
2022-08-27T03:57:11.033Z,41.64
2022-08-27T03:59:38.100Z,41.73
2022-08-27T04:02:05.352Z,41.82
2022-08-27T04:04:32.426Z,41.74
2022-08-27T04:06:59.966Z,41.42
2022-08-27T04:09:26.632Z,41.50
2022-08-27T04:11:53.496Z,41.60
2022-08-27T04:14:26.116Z,41.48
2022-08-27T04:16:56.199Z,41.32
2022-08-27T04:19:27.728Z,41.53
2022-08-27T04:22:02.571Z,41.49
2022-08-27T04:24:31.651Z,41.48
2022-08-27T04:27:02.815Z,41.40
2022-08-27T04:29:29.599Z,41.53
2022-08-27T04:31:57.896Z,41.47
2022-08-27T04:34:24.579Z,41.41
2022-08-27T04:36:51.443Z,41.23
2022-08-27T04:39:20.611Z,41.37
2022-08-27T04:41:50.497Z,41.68
2022-08-27T04:44:17.108Z,41.75
2022-08-27T04:46:46.026Z,41.56
2022-08-27T04:49:17.007Z,41.80
2022-08-27T04:51:43.618Z,42.04
2022-08-27T04:54:10.660Z,42.08
2022-08-27T04:56:37.941Z,41.78
2022-08-27T04:59:06.805Z,42.08
2022-08-27T05:01:33.788Z,42.29
2022-08-27T05:04:00.878Z,42.08
2022-08-27T05:06:28.127Z,42.17
2022-08-27T05:08:55.997Z,42.60
2022-08-27T05:11:25.914Z,42.35
2022-08-27T05:13:52.775Z,42.88
2022-08-27T05:16:22.370Z,42.75
2022-08-27T05:18:51.721Z,43.33
2022-08-27T05:21:20.176Z,43.56
2022-08-27T05:26:16.057Z,43.84
2022-08-27T05:28:42.947Z,43.89
2022-08-27T05:31:11.270Z,44.09
2022-08-27T05:33:39.880Z,43.96
2022-08-27T05:36:07.483Z,44.25
2022-08-27T05:38:34.669Z,43.82
2022-08-27T05:41:06.334Z,43.68
2022-08-27T05:43:33.310Z,43.96
2022-08-27T05:46:05.721Z,43.81
2022-08-27T05:50:49.024Z,43.55
2022-08-27T05:53:15.695Z,43.67
2022-08-27T05:55:45.535Z,43.92
2022-08-27T05:58:33.595Z,43.49
2022-08-27T06:01:10.091Z,43.59
2022-08-27T06:03:38.314Z,43.70
2022-08-27T06:06:11.240Z,43.38
2022-08-27T06:08:38.767Z,43.28
2022-08-27T06:11:07.472Z,43.25
2022-08-27T06:13:35.270Z,43.24
2022-08-27T06:16:08.815Z,43.09
2022-08-27T06:18:38.396Z,43.06
2022-08-27T06:21:06.494Z,42.99
2022-08-27T06:23:34.402Z,43.44
2022-08-27T06:26:05.628Z,43.37
2022-08-27T06:28:32.312Z,43.16
2022-08-27T06:31:06.934Z,43.14
2022-08-27T06:33:34.289Z,43.47
2022-08-27T06:36:06.326Z,43.63
2022-08-27T06:38:34.055Z,43.64
2022-08-27T06:41:04.290Z,43.76
2022-08-27T06:43:31.183Z,43.69
2022-08-27T06:45:57.842Z,43.34
2022-08-27T06:48:24.495Z,43.61
2022-08-27T06:50:51.151Z,43.45
2022-08-27T06:53:17.808Z,43.58
2022-08-27T06:55:51.218Z,43.80
2022-08-27T06:58:19.483Z,43.65
2022-08-27T07:00:48.999Z,43.53
2022-08-27T07:03:15.830Z,43.47
2022-08-27T07:05:42.494Z,43.85
2022-08-27T07:08:10.836Z,43.74
2022-08-27T07:10:38.180Z,43.96
2022-08-27T07:13:05.277Z,43.91
2022-08-27T07:15:32.964Z,43.79
2022-08-27T07:18:01.976Z,43.50
2022-08-27T07:20:31.931Z,43.67
2022-08-27T07:22:58.659Z,43.82
2022-08-27T07:25:26.503Z,44.09
2022-08-27T07:27:53.224Z,43.97
2022-08-27T07:30:19.784Z,43.79
2022-08-27T07:32:47.430Z,44.21
2022-08-27T07:35:14.308Z,44.09
2022-08-27T07:37:43.883Z,43.89
2022-08-27T07:40:14.290Z,44.33
2022-08-27T07:43:01.026Z,44.11
2022-08-27T07:45:29.705Z,44.41
2022-08-27T07:47:56.492Z,44.52
2022-08-27T07:50:23.629Z,44.58
2022-08-27T07:52:51.416Z,44.47
2022-08-27T07:55:18.812Z,44.35
2022-08-27T07:57:45.428Z,44.71
2022-08-27T08:00:13.151Z,44.70
2022-08-27T08:02:42.226Z,44.54
2022-08-27T08:05:10.076Z,44.43
2022-08-27T08:09:51.800Z,44.79
2022-08-27T08:12:18.474Z,44.35
2022-08-27T08:14:57.831Z,44.78
2022-08-27T08:17:25.665Z,44.34
2022-08-27T08:20:17.628Z,44.55
2022-08-27T08:22:40.619Z,44.70
2022-08-27T08:25:07.590Z,44.66
2022-08-27T08:27:41.067Z,44.69
2022-08-27T08:30:09.557Z,44.73
2022-08-27T08:32:36.820Z,45.03
2022-08-27T08:35:04.404Z,45.25
2022-08-27T08:37:31.293Z,45.48
2022-08-27T08:39:57.981Z,45.15
2022-08-27T08:42:42.543Z,45.23
2022-08-27T08:45:19.559Z,45.28
2022-08-27T08:48:06.117Z,45.31
2022-08-27T08:50:56.296Z,45.76
2022-08-27T08:53:41.016Z,45.55
2022-08-27T08:56:15.258Z,45.21
2022-08-27T08:58:48.015Z,45.46
2022-08-27T09:01:18.644Z,45.53
2022-08-27T09:03:53.547Z,45.01
2022-08-27T09:06:38.120Z,44.83
2022-08-27T09:09:16.887Z,45.12
2022-08-27T09:11:52.231Z,44.89
2022-08-27T09:14:40.611Z,44.56
2022-08-27T09:17:12.071Z,44.80
2022-08-27T09:19:38.962Z,44.51
2022-08-27T09:22:28.490Z,44.93
2022-08-27T09:25:10.386Z,44.88
2022-08-27T09:27:41.840Z,44.51
2022-08-27T09:30:20.766Z,44.54
2022-08-27T09:33:01.162Z,44.75
2022-08-27T09:35:34.559Z,44.75
2022-08-27T09:38:02.979Z,44.57
2022-08-27T09:40:40.932Z,44.14
2022-08-27T09:43:29.964Z,44.35
2022-08-27T09:46:05.260Z,44.49
2022-08-27T09:48:37.389Z,44.24
2022-08-27T09:51:13.950Z,44.03
2022-08-27T09:53:50.387Z,43.65
2022-08-27T09:56:30.694Z,43.64
2022-08-27T09:59:03.500Z,43.65
2022-08-27T10:01:33.097Z,43.66
2022-08-27T10:04:15.264Z,43.95
2022-08-27T10:06:50.418Z,43.69
2022-08-27T10:09:33.022Z,43.84
2022-08-27T10:12:06.605Z,43.46
2022-08-27T10:14:45.228Z,43.36
2022-08-27T10:17:37.940Z,43.32
2022-08-27T10:20:40.968Z,43.47
2022-08-27T10:23:14.917Z,43.28
2022-08-27T10:25:58.520Z,43.23
2022-08-27T10:28:40.016Z,43.03
2022-08-27T10:31:09.451Z,43.43
2022-08-27T10:34:03.832Z,43.17
2022-08-27T10:36:49.134Z,43.19
2022-08-27T10:39:38.012Z,43.56
2022-08-27T10:42:04.654Z,43.74
2022-08-27T10:44:50.981Z,44.12
2022-08-27T10:47:50.028Z,43.84
2022-08-27T10:50:35.176Z,43.92
2022-08-27T10:53:08.559Z,43.97
2022-08-27T10:55:45.920Z,44.47
2022-08-27T10:58:34.210Z,44.23
2022-08-27T11:01:17.233Z,44.49
2022-08-27T11:03:50.435Z,44.55
2022-08-27T11:07:03.583Z,44.67
2022-08-27T11:09:36.427Z,44.70
2022-08-27T11:12:14.234Z,44.76
2022-08-27T11:14:54.429Z,45.21
2022-08-27T11:17:32.669Z,45.06
2022-08-27T11:20:04.524Z,45.37
2022-08-27T11:22:42.383Z,45.18
2022-08-27T11:25:26.135Z,44.97
2022-08-27T11:27:56.363Z,45.17
2022-08-27T11:30:38.547Z,45.52
2022-08-27T11:37:58.723Z,46.20
2022-08-27T11:40:51.026Z,46.77
2022-08-27T11:43:22.519Z,47.24
2022-08-27T11:45:58.942Z,47.24
2022-08-27T11:48:29.732Z,47.05
2022-08-27T11:50:59.323Z,47.30
2022-08-27T11:53:47.693Z,47.62
2022-08-27T11:56:36.701Z,47.29
2022-08-27T11:59:21.716Z,47.04
2022-08-27T12:01:51.584Z,47.00
2022-08-27T12:04:32.696Z,46.80
2022-08-27T12:07:05.085Z,46.88
2022-08-27T12:09:51.516Z,46.95
2022-08-27T12:12:42.119Z,46.77
2022-08-27T12:15:17.785Z,46.64
2022-08-27T12:17:58.394Z,46.01
2022-08-27T12:20:43.978Z,46.05
2022-08-27T12:23:42.358Z,45.98
2022-08-27T12:26:42.793Z,45.53
2022-08-27T12:29:18.397Z,45.04
2022-08-27T12:31:48.694Z,45.14
2022-08-27T12:34:28.738Z,45.11
2022-08-27T12:36:56.299Z,44.97
2022-08-27T12:39:28.680Z,45.07
2022-08-27T12:41:55.761Z,45.04
2022-08-27T12:44:27.480Z,45.13
2022-08-27T12:47:13.300Z,45.21
2022-08-27T12:49:55.759Z,45.10
2022-08-27T12:52:56.655Z,45.08
2022-08-27T12:55:51.176Z,44.82
2022-08-27T12:58:36.862Z,44.13
2022-08-27T13:01:45.459Z,44.47
2022-08-27T13:04:33.793Z,44.36
2022-08-27T13:07:00.481Z,43.93
2022-08-27T13:09:33.545Z,43.93
2022-08-27T13:12:02.640Z,43.89
2022-08-27T13:14:36.767Z,43.96
2022-08-27T13:17:09.081Z,43.59
2022-08-27T13:19:44.075Z,43.31
2022-08-27T13:22:10.833Z,43.61
2022-08-27T13:24:49.712Z,43.46
2022-08-27T13:27:16.484Z,43.41
2022-08-27T13:29:43.697Z,43.27
2022-08-27T13:32:14.083Z,43.09
2022-08-27T13:34:41.531Z,42.58
2022-08-27T13:37:24.680Z,42.42
2022-08-27T13:39:56.658Z,42.21
2022-08-27T13:42:25.153Z,41.80
2022-08-27T13:44:56.523Z,42.12
2022-08-27T13:47:26.218Z,42.27
2022-08-27T13:50:13.858Z,42.27
2022-08-27T13:53:04.638Z,42.36
2022-08-27T13:55:33.323Z,42.66
2022-08-27T13:58:00.452Z,42.39
2022-08-27T14:00:33.495Z,42.25
2022-08-27T14:03:03.594Z,42.58
2022-08-27T14:05:33.878Z,42.19
2022-08-27T14:08:13.803Z,42.62
2022-08-27T14:10:45.071Z,42.43
2022-08-27T14:13:23.672Z,42.13
2022-08-27T14:15:55.652Z,42.23
2022-08-27T14:18:57.899Z,42.06
2022-08-27T14:21:22.652Z,41.81
2022-08-27T14:23:49.528Z,42.08
2022-08-27T14:26:17.389Z,41.96
2022-08-27T14:28:45.034Z,42.09
2022-08-27T14:31:13.325Z,42.15
2022-08-27T14:33:40.240Z,42.41
2022-08-27T14:36:08.219Z,42.62
2022-08-27T14:38:37.654Z,42.94
2022-08-27T14:41:07.639Z,42.98
2022-08-27T14:43:34.733Z,43.03
2022-08-27T14:46:02.871Z,43.36
2022-08-27T14:48:33.528Z,43.32
2022-08-27T14:51:09.331Z,43.47
2022-08-27T14:55:59.368Z,43.53
2022-08-27T14:58:26.147Z,43.53
2022-08-27T15:00:55.316Z,43.50
2022-08-27T15:03:25.461Z,43.93
2022-08-27T15:05:56.190Z,43.64
2022-08-27T15:08:27.574Z,43.82
2022-08-27T15:10:57.993Z,43.90
2022-08-27T15:13:24.868Z,43.94
2022-08-27T15:15:52.623Z,44.15
2022-08-27T15:18:20.003Z,44.03
2022-08-27T15:20:47.208Z,44.37
2022-08-27T15:23:15.546Z,44.55
2022-08-27T15:25:45.090Z,44.51
2022-08-27T15:28:11.968Z,44.36
2022-08-27T15:33:06.025Z,45.12
2022-08-27T15:35:32.881Z,45.06
2022-08-27T15:38:00.728Z,45.26
2022-08-27T15:40:30.842Z,45.65
2022-08-27T15:43:02.129Z,45.53
2022-08-27T15:45:31.495Z,46.06
2022-08-27T15:47:59.666Z,46.30
2022-08-27T15:50:28.328Z,46.77
2022-08-27T15:52:58.266Z,46.51
2022-08-27T15:55:28.900Z,46.75
2022-08-27T15:57:55.601Z,47.06
2022-08-27T16:00:25.659Z,47.24
2022-08-27T16:02:52.840Z,47.45
2022-08-27T16:05:22.660Z,47.34
2022-08-27T16:10:11.892Z,47.56
2022-08-27T16:12:38.469Z,47.55
2022-08-27T16:15:05.822Z,47.45
2022-08-27T16:17:33.167Z,47.66
2022-08-27T16:20:00.185Z,47.61
2022-08-27T16:22:26.856Z,47.78
2022-08-27T16:24:53.456Z,47.61
2022-08-27T16:27:20.445Z,47.71
2022-08-27T16:29:47.008Z,47.73
2022-08-27T16:32:17.244Z,47.96
2022-08-27T16:34:47.277Z,47.85
2022-08-27T16:37:13.967Z,47.48
2022-08-27T16:39:44.053Z,47.53
2022-08-27T16:42:10.684Z,47.88
2022-08-27T16:44:38.289Z,47.78
2022-08-27T16:47:06.201Z,47.73
2022-08-27T16:49:51.521Z,47.69
2022-08-27T16:52:20.300Z,47.77
2022-08-27T16:54:46.998Z,47.84
2022-08-27T16:57:13.689Z,47.84
2022-08-27T16:59:42.584Z,47.86
2022-08-27T17:02:17.563Z,47.86
2022-08-27T17:04:48.017Z,47.68
2022-08-27T17:07:25.829Z,47.45
2022-08-27T17:09:52.788Z,47.68
2022-08-27T17:12:27.193Z,47.54
2022-08-27T17:14:55.799Z,47.49
2022-08-27T17:17:22.332Z,47.58
2022-08-27T17:19:48.892Z,47.69
2022-08-27T17:22:15.640Z,47.27
2022-08-27T17:24:42.277Z,47.41
2022-08-27T17:27:09.161Z,47.42
2022-08-27T17:29:36.862Z,47.24
2022-08-27T17:32:06.832Z,47.49
2022-08-27T17:34:33.457Z,47.32
2022-08-27T17:37:00.560Z,47.44
2022-08-27T17:39:30.497Z,47.30
2022-08-27T17:41:57.324Z,46.96
2022-08-27T17:44:25.872Z,47.40
2022-08-27T17:46:54.531Z,47.33
2022-08-27T17:49:21.637Z,47.06
2022-08-27T17:51:49.969Z,47.13
2022-08-27T17:54:21.125Z,47.10
2022-08-27T17:56:47.695Z,46.87
2022-08-27T17:59:14.337Z,47.33
2022-08-27T18:01:41.339Z,47.01
2022-08-27T18:04:08.540Z,46.98
2022-08-27T18:06:35.253Z,46.98
2022-08-27T18:09:03.668Z,46.95
2022-08-27T18:11:30.300Z,46.91
2022-08-27T18:14:04.075Z,47.08
2022-08-27T18:16:32.179Z,47.07
2022-08-27T18:18:58.759Z,47.36
2022-08-27T18:21:26.197Z,47.05
2022-08-27T18:23:53.816Z,47.10
2022-08-27T18:26:23.234Z,46.89
2022-08-27T18:28:49.980Z,46.90
2022-08-27T18:31:19.805Z,47.09
2022-08-27T18:33:47.032Z,47.10
2022-08-27T18:36:14.976Z,46.91
2022-08-27T18:38:42.915Z,47.04
2022-08-27T18:41:09.589Z,46.73
2022-08-27T18:43:36.521Z,46.86
2022-08-27T18:46:04.560Z,47.01
2022-08-27T18:48:32.448Z,46.85
2022-08-27T18:51:01.604Z,46.69
2022-08-27T18:53:32.912Z,46.77
2022-08-27T18:56:00.783Z,46.95
2022-08-27T18:58:27.944Z,46.85
2022-08-27T19:00:58.887Z,46.95
2022-08-27T19:03:29.319Z,46.91
2022-08-27T19:05:56.294Z,46.64
2022-08-27T19:08:23.893Z,46.63
2022-08-27T19:13:13.164Z,46.69
2022-08-27T19:15:44.552Z,47.07
2022-08-27T19:18:11.649Z,46.77
2022-08-27T19:20:38.772Z,46.80
2022-08-27T19:23:05.366Z,46.71
2022-08-27T19:25:32.384Z,46.87
2022-08-27T19:27:59.215Z,46.86
2022-08-27T19:30:25.886Z,46.80
2022-08-27T19:32:53.887Z,47.60
2022-08-27T19:35:21.717Z,48.12
2022-08-27T19:37:53.025Z,48.88
2022-08-27T19:40:21.916Z,48.79
2022-08-27T19:42:49.575Z,49.26
2022-08-27T19:47:36.411Z,49.23
2022-08-27T19:50:04.083Z,49.08
2022-08-27T19:52:30.633Z,49.24
2022-08-27T19:55:13.191Z,49.24
2022-08-27T19:57:41.171Z,49.57
2022-08-27T20:00:09.383Z,49.25
2022-08-27T20:02:38.855Z,49.56
2022-08-27T20:07:35.065Z,49.35
2022-08-27T20:10:08.569Z,49.37
2022-08-27T20:12:36.776Z,49.35
2022-08-27T20:15:06.173Z,49.31
2022-08-27T20:17:33.465Z,49.25
2022-08-27T20:20:00.605Z,49.41
2022-08-27T20:22:27.915Z,49.45
2022-08-27T20:24:54.579Z,49.38
2022-08-27T20:27:21.254Z,49.45
2022-08-27T20:29:47.845Z,49.38
2022-08-27T20:32:14.621Z,49.20
2022-08-27T20:34:41.489Z,49.26
2022-08-27T20:37:08.208Z,49.17
2022-08-27T20:39:34.888Z,49.18
2022-08-27T20:42:01.987Z,49.32
2022-08-27T20:44:29.151Z,49.52
2022-08-27T20:46:59.188Z,49.40
2022-08-27T20:49:27.902Z,49.21
2022-08-27T20:52:03.972Z,49.24
2022-08-27T20:54:32.203Z,48.74
2022-08-27T20:56:58.871Z,48.97
2022-08-27T20:59:44.964Z,48.65
2022-08-27T21:02:14.033Z,48.77
2022-08-27T21:04:45.913Z,48.73
2022-08-27T21:07:16.304Z,48.53
2022-08-27T21:09:55.962Z,48.77
2022-08-27T21:12:24.548Z,48.55
2022-08-27T21:14:51.179Z,48.20
2022-08-27T21:17:25.234Z,48.14
2022-08-27T21:19:52.468Z,48.22
2022-08-27T21:22:19.939Z,48.36
2022-08-27T21:24:47.554Z,48.47
2022-08-27T21:27:18.366Z,48.17
2022-08-27T21:32:03.648Z,47.86
2022-08-27T21:34:31.048Z,47.99
2022-08-27T21:36:58.297Z,47.65
2022-08-27T21:39:24.952Z,47.94
2022-08-27T21:41:51.525Z,47.80
2022-08-27T21:44:18.181Z,47.72
2022-08-27T21:46:44.788Z,47.85
2022-08-27T21:49:11.412Z,47.87
2022-08-27T21:51:37.976Z,47.88
2022-08-27T21:54:04.841Z,47.59
2022-08-27T21:56:31.680Z,47.86
2022-08-27T21:58:58.236Z,47.91
2022-08-27T22:01:24.875Z,47.56
2022-08-27T22:03:51.908Z,47.75
2022-08-27T22:06:19.397Z,47.50
2022-08-27T22:08:46.091Z,47.53
2022-08-27T22:11:13.365Z,47.49
2022-08-27T22:13:40.472Z,47.59
2022-08-27T22:16:07.928Z,47.37
2022-08-27T22:18:34.646Z,47.50
2022-08-27T22:21:02.579Z,47.39
2022-08-27T22:23:29.176Z,47.46
2022-08-27T22:28:19.064Z,47.71
2022-08-27T22:30:46.247Z,47.36
2022-08-27T22:33:13.434Z,47.50
2022-08-27T22:35:40.081Z,47.75
2022-08-27T22:38:07.585Z,47.27
2022-08-27T22:40:36.361Z,47.41
2022-08-27T22:43:04.115Z,47.54
2022-08-27T22:45:31.057Z,47.22
2022-08-27T22:47:57.849Z,47.31
2022-08-27T22:50:24.960Z,47.42
2022-08-27T22:52:52.057Z,47.26
2022-08-27T22:55:21.551Z,47.31
2022-08-27T22:57:53.646Z,47.67
2022-08-27T23:00:27.400Z,47.47
2022-08-27T23:02:54.527Z,47.53
2022-08-27T23:05:22.025Z,47.20
2022-08-27T23:07:48.789Z,47.28
2022-08-27T23:10:18.752Z,47.10
2022-08-27T23:12:46.659Z,47.32
2022-08-27T23:15:15.424Z,47.39
2022-08-27T23:17:42.089Z,47.36
2022-08-27T23:22:37.552Z,47.18
2022-08-27T23:25:24.790Z,47.52
2022-08-27T23:27:51.347Z,47.11
2022-08-27T23:30:18.330Z,47.52
2022-08-27T23:32:48.290Z,47.42
2022-08-27T23:35:21.755Z,47.33
2022-08-27T23:40:17.715Z,47.13
2022-08-27T23:42:45.136Z,47.23
2022-08-27T23:45:16.033Z,47.21
2022-08-27T23:47:43.058Z,47.16
2022-08-27T23:50:10.932Z,47.13
2022-08-27T23:52:38.699Z,47.06
2022-08-27T23:55:06.565Z,47.11
2022-08-27T23:57:33.256Z,47.44
2022-08-27T23:59:59.915Z,46.96
